sensor_id;sensor_type;location;lat;lon;timestamp;temperature;humidity
70928;SHT31;58587;53.034;18.576;2023-08-06T00:01:43;17.24;89.58
70928;SHT31;58587;53.034;18.576;2023-08-06T00:04:08;17.27;89.74
70928;SHT31;58587;53.034;18.576;2023-08-06T00:06:33;17.27;89.87
70928;SHT31;58587;53.034;18.576;2023-08-06T00:08:59;17.25;90.09
70928;SHT31;58587;53.034;18.576;2023-08-06T00:11:24;17.24;90.00
70928;SHT31;58587;53.034;18.576;2023-08-06T00:13:49;17.24;90.42
70928;SHT31;58587;53.034;18.576;2023-08-06T00:16:15;17.28;90.33
70928;SHT31;58587;53.034;18.576;2023-08-06T00:18:40;17.25;90.33
70928;SHT31;58587;53.034;18.576;2023-08-06T00:21:05;17.24;90.40
70928;SHT31;58587;53.034;18.576;2023-08-06T00:23:31;17.28;90.45
70928;SHT31;58587;53.034;18.576;2023-08-06T00:25:56;17.25;90.68
70928;SHT31;58587;53.034;18.576;2023-08-06T00:28:21;17.27;90.60
70928;SHT31;58587;53.034;18.576;2023-08-06T00:30:52;17.27;90.66
70928;SHT31;58587;53.034;18.576;2023-08-06T00:33:18;17.30;90.58
70928;SHT31;58587;53.034;18.576;2023-08-06T00:35:43;17.28;90.73
70928;SHT31;58587;53.034;18.576;2023-08-06T00:38:08;17.30;90.63
70928;SHT31;58587;53.034;18.576;2023-08-06T00:40:34;17.30;90.83
70928;SHT31;58587;53.034;18.576;2023-08-06T00:42:59;17.30;90.96
70928;SHT31;58587;53.034;18.576;2023-08-06T00:45:25;17.28;91.00
70928;SHT31;58587;53.034;18.576;2023-08-06T00:47:50;17.28;90.81
70928;SHT31;58587;53.034;18.576;2023-08-06T00:50:15;17.28;90.91
70928;SHT31;58587;53.034;18.576;2023-08-06T00:52:41;17.27;91.13
70928;SHT31;58587;53.034;18.576;2023-08-06T00:55:07;17.24;91.41
70928;SHT31;58587;53.034;18.576;2023-08-06T00:57:33;17.20;91.11
70928;SHT31;58587;53.034;18.576;2023-08-06T00:59:58;17.22;91.23
70928;SHT31;58587;53.034;18.576;2023-08-06T01:02:23;17.24;90.98
70928;SHT31;58587;53.034;18.576;2023-08-06T01:04:49;17.17;91.23
70928;SHT31;58587;53.034;18.576;2023-08-06T01:10:27;17.17;91.16
70928;SHT31;58587;53.034;18.576;2023-08-06T01:13:16;17.14;91.41
70928;SHT31;58587;53.034;18.576;2023-08-06T01:15:49;17.14;91.06
70928;SHT31;58587;53.034;18.576;2023-08-06T01:18:15;17.14;91.02
70928;SHT31;58587;53.034;18.576;2023-08-06T01:20:41;17.14;91.02
70928;SHT31;58587;53.034;18.576;2023-08-06T01:23:06;17.11;91.12
70928;SHT31;58587;53.034;18.576;2023-08-06T01:26:05;17.12;91.29
70928;SHT31;58587;53.034;18.576;2023-08-06T01:28:48;17.08;91.09
70928;SHT31;58587;53.034;18.576;2023-08-06T01:31:18;17.12;91.09
70928;SHT31;58587;53.034;18.576;2023-08-06T01:33:47;17.12;90.91
70928;SHT31;58587;53.034;18.576;2023-08-06T01:36:15;17.11;91.14
70928;SHT31;58587;53.034;18.576;2023-08-06T01:38:41;17.06;91.26
70928;SHT31;58587;53.034;18.576;2023-08-06T01:41:07;17.06;91.42
70928;SHT31;58587;53.034;18.576;2023-08-06T01:43:32;17.04;91.51
70928;SHT31;58587;53.034;18.576;2023-08-06T01:45:57;17.11;91.14
70928;SHT31;58587;53.034;18.576;2023-08-06T01:48:22;17.07;91.29
70928;SHT31;58587;53.034;18.576;2023-08-06T01:50:48;17.07;91.35
70928;SHT31;58587;53.034;18.576;2023-08-06T01:53:13;17.08;91.28
70928;SHT31;58587;53.034;18.576;2023-08-06T01:55:38;17.06;91.61
70928;SHT31;58587;53.034;18.576;2023-08-06T01:58:04;17.06;91.64
70928;SHT31;58587;53.034;18.576;2023-08-06T02:00:29;17.06;91.83
70928;SHT31;58587;53.034;18.576;2023-08-06T02:02:54;17.06;91.70
70928;SHT31;58587;53.034;18.576;2023-08-06T02:05:20;17.06;91.90
70928;SHT31;58587;53.034;18.576;2023-08-06T02:07:45;17.04;91.73
70928;SHT31;58587;53.034;18.576;2023-08-06T02:10:10;17.07;91.66
70928;SHT31;58587;53.034;18.576;2023-08-06T02:12:35;17.10;91.57
70928;SHT31;58587;53.034;18.576;2023-08-06T02:15:01;17.08;91.50
70928;SHT31;58587;53.034;18.576;2023-08-06T02:17:26;17.12;91.50
70928;SHT31;58587;53.034;18.576;2023-08-06T02:19:51;17.11;91.80
70928;SHT31;58587;53.034;18.576;2023-08-06T02:22:17;17.11;91.52
70928;SHT31;58587;53.034;18.576;2023-08-06T02:24:42;17.10;92.10
70928;SHT31;58587;53.034;18.576;2023-08-06T02:27:07;17.11;92.02
70928;SHT31;58587;53.034;18.576;2023-08-06T02:29:33;17.10;91.96
70928;SHT31;58587;53.034;18.576;2023-08-06T02:31:58;17.11;92.01
70928;SHT31;58587;53.034;18.576;2023-08-06T02:34:24;17.12;91.84
70928;SHT31;58587;53.034;18.576;2023-08-06T02:36:49;17.14;91.92
70928;SHT31;58587;53.034;18.576;2023-08-06T02:39:15;17.18;91.87
70928;SHT31;58587;53.034;18.576;2023-08-06T02:41:40;17.18;92.07
70928;SHT31;58587;53.034;18.576;2023-08-06T02:44:05;17.17;92.02
70928;SHT31;58587;53.034;18.576;2023-08-06T02:46:31;17.20;91.88
70928;SHT31;58587;53.034;18.576;2023-08-06T02:48:56;17.18;91.91
70928;SHT31;58587;53.034;18.576;2023-08-06T02:51:22;17.18;92.12
70928;SHT31;58587;53.034;18.576;2023-08-06T02:53:48;17.17;92.13
70928;SHT31;58587;53.034;18.576;2023-08-06T02:56:13;17.17;92.04
70928;SHT31;58587;53.034;18.576;2023-08-06T02:58:38;17.15;91.90
70928;SHT31;58587;53.034;18.576;2023-08-06T03:01:05;17.15;91.87
70928;SHT31;58587;53.034;18.576;2023-08-06T03:03:32;17.17;91.98
70928;SHT31;58587;53.034;18.576;2023-08-06T03:05:57;17.21;92.13
70928;SHT31;58587;53.034;18.576;2023-08-06T03:08:23;17.20;92.04
70928;SHT31;58587;53.034;18.576;2023-08-06T03:10:49;17.20;91.82
70928;SHT31;58587;53.034;18.576;2023-08-06T03:13:16;17.20;91.85
70928;SHT31;58587;53.034;18.576;2023-08-06T03:15:41;17.22;91.78
70928;SHT31;58587;53.034;18.576;2023-08-06T03:18:06;17.17;91.83
70928;SHT31;58587;53.034;18.576;2023-08-06T03:20:32;17.22;91.75
70928;SHT31;58587;53.034;18.576;2023-08-06T03:22:57;17.22;91.82
70928;SHT31;58587;53.034;18.576;2023-08-06T03:25:23;17.20;92.00
70928;SHT31;58587;53.034;18.576;2023-08-06T03:27:48;17.22;91.83
70928;SHT31;58587;53.034;18.576;2023-08-06T03:30:13;17.22;91.96
70928;SHT31;58587;53.034;18.576;2023-08-06T03:32:39;17.22;91.91
70928;SHT31;58587;53.034;18.576;2023-08-06T03:35:04;17.21;91.86
70928;SHT31;58587;53.034;18.576;2023-08-06T03:37:30;17.25;91.99
70928;SHT31;58587;53.034;18.576;2023-08-06T03:39:55;17.22;92.14
70928;SHT31;58587;53.034;18.576;2023-08-06T03:42:20;17.21;92.03
70928;SHT31;58587;53.034;18.576;2023-08-06T03:44:46;17.24;92.09
70928;SHT31;58587;53.034;18.576;2023-08-06T03:47:12;17.22;91.90
70928;SHT31;58587;53.034;18.576;2023-08-06T03:49:38;17.24;91.87
70928;SHT31;58587;53.034;18.576;2023-08-06T03:52:03;17.24;91.82
70928;SHT31;58587;53.034;18.576;2023-08-06T03:54:28;17.24;91.90
70928;SHT31;58587;53.034;18.576;2023-08-06T03:56:55;17.28;91.81
70928;SHT31;58587;53.034;18.576;2023-08-06T03:59:20;17.25;91.83
70928;SHT31;58587;53.034;18.576;2023-08-06T04:01:45;17.24;91.92
70928;SHT31;58587;53.034;18.576;2023-08-06T04:04:11;17.22;92.10
70928;SHT31;58587;53.034;18.576;2023-08-06T04:06:36;17.24;92.09
70928;SHT31;58587;53.034;18.576;2023-08-06T04:09:01;17.24;91.89
70928;SHT31;58587;53.034;18.576;2023-08-06T04:11:27;17.25;92.01
70928;SHT31;58587;53.034;18.576;2023-08-06T04:13:52;17.27;91.82
70928;SHT31;58587;53.034;18.576;2023-08-06T04:16:19;17.25;91.84
70928;SHT31;58587;53.034;18.576;2023-08-06T04:18:44;17.30;91.83
70928;SHT31;58587;53.034;18.576;2023-08-06T04:21:10;17.34;91.78
70928;SHT31;58587;53.034;18.576;2023-08-06T04:23:36;17.30;91.89
70928;SHT31;58587;53.034;18.576;2023-08-06T04:26:01;17.32;92.02
70928;SHT31;58587;53.034;18.576;2023-08-06T04:28:26;17.35;92.16
70928;SHT31;58587;53.034;18.576;2023-08-06T04:30:52;17.38;92.19
70928;SHT31;58587;53.034;18.576;2023-08-06T04:33:18;17.42;92.00
70928;SHT31;58587;53.034;18.576;2023-08-06T04:35:44;17.45;92.04
70928;SHT31;58587;53.034;18.576;2023-08-06T04:38:09;17.42;92.18
70928;SHT31;58587;53.034;18.576;2023-08-06T04:40:35;17.48;92.10
70928;SHT31;58587;53.034;18.576;2023-08-06T04:43:01;17.49;92.05
70928;SHT31;58587;53.034;18.576;2023-08-06T04:45:26;17.52;91.93
70928;SHT31;58587;53.034;18.576;2023-08-06T04:47:51;17.51;92.29
70928;SHT31;58587;53.034;18.576;2023-08-06T04:50:17;17.54;91.94
70928;SHT31;58587;53.034;18.576;2023-08-06T04:52:42;17.55;91.90
70928;SHT31;58587;53.034;18.576;2023-08-06T04:55:07;17.59;91.92
70928;SHT31;58587;53.034;18.576;2023-08-06T04:57:33;17.58;91.74
70928;SHT31;58587;53.034;18.576;2023-08-06T04:59:59;17.62;91.69
70928;SHT31;58587;53.034;18.576;2023-08-06T05:02:24;17.64;91.75
70928;SHT31;58587;53.034;18.576;2023-08-06T05:04:49;17.66;91.66
70928;SHT31;58587;53.034;18.576;2023-08-06T05:07:14;17.68;91.84
70928;SHT31;58587;53.034;18.576;2023-08-06T05:09:40;17.74;91.83
70928;SHT31;58587;53.034;18.576;2023-08-06T05:12:05;17.74;91.72
70928;SHT31;58587;53.034;18.576;2023-08-06T05:14:31;17.74;91.72
70928;SHT31;58587;53.034;18.576;2023-08-06T05:16:56;17.79;91.77
70928;SHT31;58587;53.034;18.576;2023-08-06T05:19:21;17.87;91.74
70928;SHT31;58587;53.034;18.576;2023-08-06T05:21:47;17.95;91.60
70928;SHT31;58587;53.034;18.576;2023-08-06T05:24:12;18.03;91.57
70928;SHT31;58587;53.034;18.576;2023-08-06T05:26:37;18.09;91.17
70928;SHT31;58587;53.034;18.576;2023-08-06T05:29:03;18.14;91.20
70928;SHT31;58587;53.034;18.576;2023-08-06T05:31:28;18.20;91.25
70928;SHT31;58587;53.034;18.576;2023-08-06T05:33:54;18.25;91.03
70928;SHT31;58587;53.034;18.576;2023-08-06T05:36:19;18.27;91.06
70928;SHT31;58587;53.034;18.576;2023-08-06T05:38:45;18.32;90.98
70928;SHT31;58587;53.034;18.576;2023-08-06T05:41:10;18.29;90.63
70928;SHT31;58587;53.034;18.576;2023-08-06T05:43:35;18.29;90.43
70928;SHT31;58587;53.034;18.576;2023-08-06T05:46:01;18.33;90.70
70928;SHT31;58587;53.034;18.576;2023-08-06T05:48:26;18.34;90.85
70928;SHT31;58587;53.034;18.576;2023-08-06T05:50:53;18.37;90.67
70928;SHT31;58587;53.034;18.576;2023-08-06T05:53:18;18.40;90.55
70928;SHT31;58587;53.034;18.576;2023-08-06T05:55:44;18.43;90.53
70928;SHT31;58587;53.034;18.576;2023-08-06T05:58:10;18.44;90.70
70928;SHT31;58587;53.034;18.576;2023-08-06T06:00:35;18.48;90.34
70928;SHT31;58587;53.034;18.576;2023-08-06T06:03:01;18.50;90.39
70928;SHT31;58587;53.034;18.576;2023-08-06T06:05:28;18.53;90.42
70928;SHT31;58587;53.034;18.576;2023-08-06T06:07:53;18.57;90.39
70928;SHT31;58587;53.034;18.576;2023-08-06T06:10:18;18.60;90.12
70928;SHT31;58587;53.034;18.576;2023-08-06T06:12:44;18.61;89.99
70928;SHT31;58587;53.034;18.576;2023-08-06T06:15:09;18.67;90.23
70928;SHT31;58587;53.034;18.576;2023-08-06T06:17:34;18.70;89.98
70928;SHT31;58587;53.034;18.576;2023-08-06T06:20:00;18.75;89.82
70928;SHT31;58587;53.034;18.576;2023-08-06T06:22:25;18.81;89.53
70928;SHT31;58587;53.034;18.576;2023-08-06T06:24:51;18.87;89.47
70928;SHT31;58587;53.034;18.576;2023-08-06T06:27:16;18.90;89.61
70928;SHT31;58587;53.034;18.576;2023-08-06T06:29:41;18.91;89.43
70928;SHT31;58587;53.034;18.576;2023-08-06T06:32:07;18.95;89.51
70928;SHT31;58587;53.034;18.576;2023-08-06T06:34:32;18.97;89.63
70928;SHT31;58587;53.034;18.576;2023-08-06T06:36:57;18.97;89.49
70928;SHT31;58587;53.034;18.576;2023-08-06T06:39:23;19.02;89.65
70928;SHT31;58587;53.034;18.576;2023-08-06T06:41:48;19.04;89.65
